createdAt,value
2018-10-07T00:02:26.962Z,13.57
2018-10-07T00:04:55.303Z,12.60
2018-10-07T00:07:23.578Z,15.33
2018-10-07T00:09:51.821Z,12.37
2018-10-07T00:12:20.105Z,12.83
2018-10-07T00:14:48.509Z,13.33
2018-10-07T00:17:16.739Z,15.30
2018-10-07T00:19:46.405Z,12.57
2018-10-07T00:22:15.349Z,13.73
2018-10-07T00:24:43.666Z,14.00
2018-10-07T00:27:11.894Z,17.37
2018-10-07T00:29:40.254Z,14.27
2018-10-07T00:32:13.587Z,12.13
2018-10-07T00:34:41.975Z,13.70
2018-10-07T00:37:10.269Z,12.53
2018-10-07T00:39:38.542Z,11.60
2018-10-07T00:42:07.161Z,13.33
2018-10-07T00:44:35.484Z,12.93
2018-10-07T00:47:03.728Z,10.93
2018-10-07T00:49:31.965Z,16.00
2018-10-07T00:52:00.242Z,13.37
2018-10-07T00:54:28.585Z,13.77
2018-10-07T00:56:56.807Z,13.57
2018-10-07T00:59:25.039Z,13.70
2018-10-07T01:01:53.283Z,11.70
2018-10-07T01:04:21.669Z,12.90
2018-10-07T01:06:49.942Z,14.93
2018-10-07T01:09:18.191Z,17.93
2018-10-07T01:11:46.406Z,12.93
2018-10-07T01:14:14.738Z,13.50
2018-10-07T01:16:42.982Z,13.33
2018-10-07T01:19:11.225Z,14.53
2018-10-07T01:21:39.440Z,14.20
2018-10-07T01:24:07.815Z,12.87
2018-10-07T01:26:36.194Z,13.63
2018-10-07T01:29:04.418Z,13.23
2018-10-07T01:31:32.602Z,13.70
2018-10-07T01:34:00.825Z,15.07
2018-10-07T01:36:29.188Z,13.07
2018-10-07T01:38:57.771Z,12.20
2018-10-07T01:41:26.078Z,14.40
2018-10-07T01:43:54.298Z,13.30
2018-10-07T01:46:22.875Z,13.73
2018-10-07T01:48:51.977Z,14.53
2018-10-07T01:51:20.152Z,10.80
2018-10-07T01:53:48.524Z,11.40
2018-10-07T01:56:16.815Z,14.20
2018-10-07T01:58:45.113Z,14.03
2018-10-07T02:01:13.355Z,12.10
2018-10-07T02:03:41.531Z,14.33
2018-10-07T02:06:09.799Z,12.57
2018-10-07T02:08:38.075Z,14.63
2018-10-07T02:11:06.558Z,11.93
2018-10-07T02:13:34.741Z,14.90
2018-10-07T02:16:03.228Z,12.10
2018-10-07T02:18:31.923Z,11.27
2018-10-07T02:21:00.343Z,10.70
2018-10-07T02:23:28.553Z,15.30
2018-10-07T02:25:56.745Z,11.27
2018-10-07T02:28:24.930Z,11.37
2018-10-07T02:30:53.801Z,12.73
2018-10-07T02:33:22.521Z,12.53
2018-10-07T02:35:50.714Z,11.70
2018-10-07T02:38:18.917Z,11.20
2018-10-07T02:40:47.279Z,11.33
2018-10-07T02:43:15.728Z,11.73
2018-10-07T02:45:43.906Z,12.07
2018-10-07T02:48:12.073Z,11.47
2018-10-07T02:50:40.939Z,11.13
2018-10-07T02:53:09.618Z,13.17
2018-10-07T02:55:37.754Z,11.23
2018-10-07T02:58:06.005Z,10.70
2018-10-07T03:00:34.204Z,12.67
2018-10-07T03:03:02.415Z,11.23
2018-10-07T03:05:30.833Z,11.00
2018-10-07T03:07:59.008Z,10.67
2018-10-07T03:10:27.218Z,12.63
2018-10-07T03:12:55.392Z,11.80
2018-10-07T03:15:23.674Z,12.97
2018-10-07T03:17:51.950Z,16.07
2018-10-07T03:20:20.151Z,10.70
2018-10-07T03:22:48.332Z,12.60
2018-10-07T03:25:16.738Z,15.97
2018-10-07T03:27:44.972Z,14.83
2018-10-07T03:30:13.198Z,12.27
2018-10-07T03:32:41.384Z,12.43
2018-10-07T03:35:09.574Z,11.07
2018-10-07T03:37:37.800Z,12.20
2018-10-07T03:40:06.074Z,12.23
2018-10-07T03:42:34.610Z,11.73
2018-10-07T03:45:02.827Z,13.27
2018-10-07T03:47:31.601Z,11.27
2018-10-07T03:49:59.788Z,13.23
2018-10-07T03:52:27.980Z,14.37
2018-10-07T03:54:56.202Z,10.93
2018-10-07T03:57:25.118Z,11.97
2018-10-07T03:59:53.378Z,12.57
2018-10-07T04:02:21.790Z,13.43
2018-10-07T04:04:50.085Z,13.50
2018-10-07T04:07:18.269Z,12.53
2018-10-07T04:09:47.478Z,10.43
2018-10-07T04:12:15.901Z,14.17
2018-10-07T04:14:44.138Z,9.70
2018-10-07T04:17:12.355Z,11.03
2018-10-07T04:19:40.570Z,10.97
2018-10-07T04:22:08.943Z,11.73
2018-10-07T04:24:37.659Z,11.37
2018-10-07T04:27:05.854Z,13.67
2018-10-07T04:29:34.394Z,12.20
2018-10-07T04:32:02.620Z,12.77
2018-10-07T04:34:30.962Z,11.90
2018-10-07T04:36:59.162Z,10.97
2018-10-07T04:39:27.457Z,13.50
2018-10-07T04:41:55.637Z,10.97
2018-10-07T04:44:23.953Z,10.83
2018-10-07T04:46:52.183Z,11.87
2018-10-07T04:49:20.436Z,13.37
2018-10-07T04:51:48.626Z,11.17
2018-10-07T04:54:17.807Z,9.90
2018-10-07T04:56:46.174Z,13.73
2018-10-07T04:59:14.530Z,13.07
2018-10-07T05:01:42.713Z,10.60
2018-10-07T05:04:10.943Z,22.77
2018-10-07T05:06:39.206Z,18.10
2018-10-07T05:09:10.578Z,16.00
2018-10-07T05:11:39.192Z,12.80
2018-10-07T05:14:08.751Z,12.70
2018-10-07T05:16:38.829Z,10.50
2018-10-07T05:19:07.325Z,12.53
2018-10-07T05:21:35.489Z,11.77
2018-10-07T05:24:03.689Z,10.53
2018-10-07T05:26:32.159Z,10.10
2018-10-07T05:29:00.510Z,9.40
2018-10-07T05:31:28.716Z,10.40
2018-10-07T05:33:56.931Z,11.80
2018-10-07T05:36:25.144Z,9.60
2018-10-07T05:38:53.477Z,9.70
2018-10-07T05:41:21.900Z,10.40
2018-10-07T05:43:50.416Z,10.33
2018-10-07T05:46:18.600Z,14.73
2018-10-07T05:48:47.002Z,12.77
2018-10-07T05:51:15.221Z,11.00
2018-10-07T05:53:43.474Z,9.80
2018-10-07T05:56:11.794Z,13.57
2018-10-07T05:58:40.000Z,11.20
2018-10-07T06:01:13.908Z,10.87
2018-10-07T06:03:51.077Z,9.00
2018-10-07T06:06:19.249Z,12.33
2018-10-07T06:08:47.508Z,11.60
2018-10-07T06:11:16.042Z,11.43
2018-10-07T06:13:44.282Z,12.87
2018-10-07T06:16:12.466Z,13.70
2018-10-07T06:18:41.050Z,10.83
2018-10-07T06:21:09.477Z,13.63
2018-10-07T06:23:37.808Z,10.73
2018-10-07T06:26:05.988Z,11.30
2018-10-07T06:28:34.175Z,10.53
2018-10-07T06:31:02.530Z,13.60
2018-10-07T06:33:30.752Z,14.03
2018-10-07T06:35:58.969Z,10.83
2018-10-07T06:38:27.179Z,11.83
2018-10-07T06:40:55.332Z,12.20
2018-10-07T06:43:23.706Z,11.07
2018-10-07T06:45:51.952Z,12.80
2018-10-07T06:48:21.895Z,12.07
2018-10-07T06:50:50.709Z,10.97
2018-10-07T06:53:19.972Z,12.63
2018-10-07T06:55:49.422Z,11.97
2018-10-07T06:58:17.922Z,11.57
2018-10-07T07:00:47.024Z,14.40
2018-10-07T07:03:17.884Z,12.93
2018-10-07T07:05:48.851Z,11.37
2018-10-07T07:08:17.379Z,12.27
2018-10-07T07:10:46.128Z,9.97
2018-10-07T07:13:14.539Z,11.53
2018-10-07T07:15:43.158Z,11.00
2018-10-07T07:18:11.538Z,13.10
2018-10-07T07:20:40.961Z,11.43
2018-10-07T07:23:09.219Z,10.07
2018-10-07T07:25:37.897Z,10.37
2018-10-07T07:28:06.106Z,10.93
2018-10-07T07:30:34.343Z,10.60
2018-10-07T07:33:02.594Z,9.77
2018-10-07T07:35:30.876Z,9.63
2018-10-07T07:37:59.357Z,11.08
2018-10-07T07:40:27.658Z,13.35
2018-10-07T07:42:55.934Z,9.73
2018-10-07T07:45:24.203Z,9.98
2018-10-07T07:47:52.439Z,10.78
2018-10-07T07:50:20.650Z,10.20
2018-10-07T07:52:48.864Z,10.30
2018-10-07T07:55:18.069Z,11.05
2018-10-07T07:57:46.289Z,10.80
2018-10-07T08:00:15.253Z,16.30
2018-10-07T08:02:43.442Z,10.13
2018-10-07T08:05:11.642Z,9.08
2018-10-07T08:07:39.909Z,9.08
2018-10-07T08:10:08.999Z,8.43
2018-10-07T08:12:37.429Z,8.70
2018-10-07T08:15:06.162Z,8.55
2018-10-07T08:17:34.367Z,8.98
2018-10-07T08:20:02.606Z,9.35
2018-10-07T08:22:30.971Z,8.40
2018-10-07T08:24:59.203Z,9.70
2018-10-07T08:27:27.382Z,9.25
2018-10-07T08:29:55.656Z,8.23
2018-10-07T08:32:24.003Z,8.95
2018-10-07T08:34:52.323Z,10.85
2018-10-07T08:37:20.534Z,8.08
2018-10-07T08:39:48.745Z,10.03
2018-10-07T08:42:17.019Z,8.30
2018-10-07T08:44:45.331Z,10.53
2018-10-07T08:47:13.511Z,9.33
2018-10-07T08:49:41.770Z,9.40
2018-10-07T08:52:09.940Z,11.10
2018-10-07T08:54:38.210Z,9.05
2018-10-07T08:57:07.010Z,8.63
2018-10-07T08:59:35.302Z,11.15
2018-10-07T09:02:03.524Z,9.73
2018-10-07T09:04:35.877Z,10.58
2018-10-07T09:07:04.083Z,9.15
2018-10-07T09:09:32.630Z,9.40
2018-10-07T09:12:01.120Z,11.48
2018-10-07T09:14:29.460Z,8.48
2018-10-07T09:16:57.593Z,8.63
2018-10-07T09:19:25.916Z,10.72
2018-10-07T09:21:54.219Z,9.05
2018-10-07T09:24:23.734Z,9.58
2018-10-07T09:26:52.103Z,9.40
2018-10-07T09:29:20.289Z,10.70
2018-10-07T09:31:48.530Z,12.13
2018-10-07T09:34:16.937Z,9.35
2018-10-07T09:36:45.417Z,9.45
2018-10-07T09:39:14.865Z,10.00
2018-10-07T09:41:43.092Z,11.33
2018-10-07T09:44:11.353Z,15.58
2018-10-07T09:46:39.706Z,9.38
2018-10-07T09:49:08.797Z,9.10
2018-10-07T09:51:37.070Z,10.25
2018-10-07T09:54:05.412Z,8.78
2018-10-07T09:56:33.634Z,6.37
2018-10-07T09:59:02.176Z,8.73
2018-10-07T10:01:31.353Z,9.13
2018-10-07T10:03:59.945Z,7.95
2018-10-07T10:06:28.128Z,7.72
2018-10-07T10:08:56.396Z,7.47
2018-10-07T10:11:25.851Z,7.42
2018-10-07T10:13:53.965Z,7.75
2018-10-07T10:16:31.406Z,6.58
2018-10-07T10:18:59.669Z,8.58
2018-10-07T10:21:35.632Z,6.72
2018-10-07T10:24:40.441Z,5.97
2018-10-07T10:28:18.597Z,7.47
2018-10-07T10:31:25.711Z,8.20
2018-10-07T10:34:03.382Z,6.70
2018-10-07T10:36:41.223Z,8.65
2018-10-07T10:39:38.684Z,6.33
2018-10-07T10:42:13.723Z,7.53
2018-10-07T10:44:45.442Z,8.35
2018-10-07T10:47:35.975Z,7.40
2018-10-07T10:53:21.951Z,5.72
2018-10-07T10:56:00.089Z,10.08
2018-10-07T10:58:37.005Z,5.50
2018-10-07T11:02:13.711Z,6.75
2018-10-07T11:04:47.257Z,6.80
2018-10-07T11:07:23.973Z,6.22
2018-10-07T11:10:01.727Z,5.47
2018-10-07T11:12:39.510Z,5.47
2018-10-07T11:15:23.487Z,5.08
2018-10-07T11:18:03.326Z,4.72
2018-10-07T11:22:46.651Z,5.08
2018-10-07T11:25:22.383Z,5.87
2018-10-07T11:28:10.682Z,4.62
2018-10-07T11:30:46.137Z,5.80
2018-10-07T11:34:29.546Z,4.28
2018-10-07T11:37:09.685Z,5.08
2018-10-07T11:41:52.100Z,5.03
2018-10-07T11:44:31.930Z,4.08
2018-10-07T11:47:08.178Z,4.92
2018-10-07T11:49:54.246Z,3.92
2018-10-07T11:53:02.584Z,4.08
2018-10-07T11:55:31.625Z,6.35
2018-10-07T11:58:00.999Z,4.75
2018-10-07T12:00:29.236Z,5.78
2018-10-07T12:02:57.470Z,4.03
2018-10-07T12:05:25.662Z,5.35
2018-10-07T12:07:53.997Z,4.22
2018-10-07T12:10:22.331Z,4.62
2018-10-07T12:12:50.523Z,4.65
2018-10-07T12:15:19.289Z,4.50
2018-10-07T12:17:47.629Z,5.20
2018-10-07T12:20:16.167Z,3.40
2018-10-07T12:22:45.139Z,4.90
2018-10-07T12:25:13.358Z,8.83
2018-10-07T12:27:41.714Z,4.33
2018-10-07T12:30:09.948Z,4.85
2018-10-07T12:32:38.418Z,6.12
2018-10-07T12:35:06.739Z,7.08
2018-10-07T12:37:34.974Z,3.85
2018-10-07T12:40:03.319Z,6.12
2018-10-07T12:42:32.277Z,4.53
2018-10-07T12:45:00.551Z,3.52
2018-10-07T12:47:28.881Z,4.97
2018-10-07T12:49:57.213Z,5.03
2018-10-07T12:52:25.520Z,5.45
2018-10-07T12:54:54.679Z,5.60
2018-10-07T12:57:22.949Z,3.42
2018-10-07T12:59:51.245Z,4.30
2018-10-07T13:02:19.702Z,4.53
2018-10-07T13:04:47.985Z,4.10
2018-10-07T13:07:16.426Z,4.72
2018-10-07T13:09:45.478Z,4.28
2018-10-07T13:12:13.690Z,5.12
2018-10-07T13:14:42.199Z,3.50
2018-10-07T13:17:10.414Z,6.08
2018-10-07T13:19:38.771Z,4.42
2018-10-07T13:22:07.103Z,7.22
2018-10-07T13:24:35.366Z,5.40
2018-10-07T13:27:03.578Z,8.58
2018-10-07T13:29:32.422Z,8.78
2018-10-07T13:32:00.957Z,6.72
2018-10-07T13:34:29.316Z,7.05
2018-10-07T13:36:57.661Z,7.08
2018-10-07T13:39:25.927Z,8.80
2018-10-07T13:41:56.202Z,6.62
2018-10-07T13:44:24.543Z,4.03
2018-10-07T13:46:52.953Z,7.50
2018-10-07T13:49:21.198Z,5.12
2018-10-07T13:51:49.423Z,10.58
2018-10-07T13:54:17.777Z,3.85
2018-10-07T13:56:46.047Z,5.15
2018-10-07T13:59:14.363Z,7.22
2018-10-07T14:01:42.589Z,5.28
2018-10-07T14:04:11.022Z,8.60
2018-10-07T14:06:39.627Z,4.42
2018-10-07T14:09:08.968Z,4.87
2018-10-07T14:11:37.387Z,5.17
2018-10-07T14:14:05.876Z,4.12
2018-10-07T14:16:34.433Z,4.22
2018-10-07T14:19:03.010Z,7.20
2018-10-07T14:21:31.488Z,4.90
2018-10-07T14:24:00.013Z,5.37
2018-10-07T14:26:28.443Z,7.67
2018-10-07T14:28:56.906Z,4.00
2018-10-07T14:31:25.394Z,4.03
2018-10-07T14:33:54.079Z,4.25
2018-10-07T14:36:22.358Z,6.37
2018-10-07T14:38:50.777Z,5.37
2018-10-07T14:41:19.342Z,8.23
2018-10-07T14:43:48.023Z,4.10
2018-10-07T14:46:16.958Z,5.75
2018-10-07T14:48:45.248Z,8.67
2018-10-07T14:51:13.460Z,4.62
2018-10-07T14:53:43.451Z,3.53
2018-10-07T14:56:11.938Z,4.45
2018-10-07T14:58:40.394Z,4.67
2018-10-07T15:01:10.235Z,7.67
2018-10-07T15:03:39.206Z,6.47
2018-10-07T15:06:08.704Z,6.05
2018-10-07T15:08:37.286Z,6.28
2018-10-07T15:11:05.726Z,4.53
2018-10-07T15:13:34.547Z,6.35
2018-10-07T15:16:03.073Z,7.27
2018-10-07T15:18:31.612Z,6.35
2018-10-07T15:21:00.120Z,7.33
2018-10-07T15:23:28.674Z,4.47
2018-10-07T15:25:56.985Z,5.70
2018-10-07T15:28:25.831Z,4.17
2018-10-07T15:30:54.249Z,6.37
2018-10-07T15:33:22.451Z,4.87
2018-10-07T15:35:50.667Z,5.90
2018-10-07T15:38:18.858Z,7.87
2018-10-07T15:40:48.041Z,5.27
2018-10-07T15:43:17.549Z,7.03
2018-10-07T15:45:46.386Z,5.90
2018-10-07T15:48:14.861Z,8.27
2018-10-07T15:50:43.052Z,6.43
2018-10-07T15:53:11.286Z,8.00
2018-10-07T15:55:40.048Z,6.83
2018-10-07T15:58:09.547Z,8.07
2018-10-07T16:00:38.321Z,15.73
2018-10-07T16:03:06.692Z,12.07
2018-10-07T16:05:35.328Z,9.20
2018-10-07T16:08:03.542Z,6.87
2018-10-07T16:10:32.949Z,7.70
2018-10-07T16:13:01.907Z,10.00
2018-10-07T16:15:30.775Z,8.53
2018-10-07T16:17:59.061Z,8.87
2018-10-07T16:20:27.288Z,7.53
2018-10-07T16:22:55.757Z,8.83
2018-10-07T16:25:24.126Z,9.33
2018-10-07T16:27:52.562Z,10.90
2018-10-07T16:30:20.966Z,8.23
2018-10-07T16:32:49.247Z,10.37
2018-10-07T16:35:17.630Z,13.60
2018-10-07T16:37:46.237Z,14.90
2018-10-07T16:40:14.475Z,23.07
2018-10-07T16:42:42.675Z,14.10
2018-10-07T16:45:10.942Z,18.30
2018-10-07T16:47:39.345Z,14.40
2018-10-07T16:50:07.709Z,15.37
2018-10-07T16:52:35.901Z,20.23
2018-10-07T16:55:04.290Z,20.97
2018-10-07T16:57:32.730Z,20.23
2018-10-07T17:00:01.087Z,21.23
2018-10-07T17:02:29.285Z,19.10
2018-10-07T17:04:57.492Z,17.43
2018-10-07T17:07:25.809Z,18.50
2018-10-07T17:09:54.663Z,22.60
2018-10-07T17:12:23.179Z,23.23
2018-10-07T17:14:51.359Z,20.20
2018-10-07T17:17:19.540Z,21.93
2018-10-07T17:19:47.859Z,22.63
2018-10-07T17:22:16.194Z,22.63
2018-10-07T17:24:44.368Z,23.23
2018-10-07T17:27:12.855Z,24.07
2018-10-07T17:29:41.135Z,23.43
2018-10-07T17:32:09.379Z,23.33
2018-10-07T17:34:37.635Z,23.27
2018-10-07T17:37:05.945Z,22.90
2018-10-07T17:39:34.337Z,22.90
2018-10-07T17:42:03.575Z,24.40
2018-10-07T17:44:31.809Z,22.43
2018-10-07T17:47:00.148Z,22.03
2018-10-07T17:49:28.554Z,23.57
2018-10-07T17:51:58.518Z,21.00
2018-10-07T17:54:26.739Z,26.90
2018-10-07T17:56:54.993Z,26.97
2018-10-07T17:59:23.337Z,26.27
2018-10-07T18:01:51.644Z,23.10
2018-10-07T18:04:20.369Z,25.20
2018-10-07T18:06:48.726Z,29.40
2018-10-07T18:09:17.679Z,27.33
2018-10-07T18:11:45.971Z,25.90
2018-10-07T18:14:14.187Z,26.40
2018-10-07T18:16:42.741Z,24.20
2018-10-07T18:19:10.975Z,25.87
2018-10-07T18:21:39.598Z,24.77
2018-10-07T18:24:07.846Z,25.80
2018-10-07T18:26:36.262Z,30.27
2018-10-07T18:29:04.500Z,30.23
2018-10-07T18:31:33.417Z,26.60
2018-10-07T18:34:01.761Z,26.90
2018-10-07T18:36:30.218Z,27.63
2018-10-07T18:38:58.893Z,26.60
2018-10-07T18:41:27.062Z,27.40
2018-10-07T18:43:55.452Z,31.07
2018-10-07T18:46:23.798Z,26.33
2018-10-07T18:48:52.340Z,28.97
2018-10-07T18:51:20.509Z,27.63
2018-10-07T18:53:48.766Z,28.67
2018-10-07T18:56:17.979Z,28.43
2018-10-07T18:58:46.271Z,33.73
2018-10-07T19:01:15.168Z,26.67
2018-10-07T19:03:43.378Z,27.77
2018-10-07T19:06:11.626Z,28.43
2018-10-07T19:08:40.311Z,28.07
2018-10-07T19:11:08.628Z,26.53
2018-10-07T19:13:36.977Z,31.97
2018-10-07T19:16:05.193Z,26.27
2018-10-07T19:18:33.419Z,27.70
2018-10-07T19:21:02.119Z,24.83
2018-10-07T19:23:30.347Z,24.97
2018-10-07T19:25:58.517Z,27.00
2018-10-07T19:28:26.992Z,32.43
2018-10-07T19:30:55.325Z,28.20
2018-10-07T19:33:24.157Z,30.13
2018-10-07T19:35:52.320Z,29.70
2018-10-07T19:38:20.566Z,30.47
2018-10-07T19:40:48.801Z,28.23
2018-10-07T19:43:17.449Z,35.23
2018-10-07T19:45:46.207Z,25.33
2018-10-07T19:48:14.421Z,31.17
2018-10-07T19:50:42.606Z,29.43
2018-10-07T19:53:10.837Z,28.00
2018-10-07T19:55:39.162Z,28.10
2018-10-07T19:58:07.743Z,32.60
2018-10-07T20:00:35.945Z,30.57
2018-10-07T20:03:04.205Z,28.30
2018-10-07T20:05:33.449Z,29.37
2018-10-07T20:08:01.736Z,29.13
2018-10-07T20:10:30.019Z,26.43
2018-10-07T20:12:58.238Z,25.97
2018-10-07T20:15:26.429Z,28.30
2018-10-07T20:17:54.801Z,28.30
2018-10-07T20:20:24.128Z,25.87
2018-10-07T20:22:52.349Z,26.57
2018-10-07T20:25:20.585Z,26.83
2018-10-07T20:27:48.771Z,27.07
2018-10-07T20:30:17.206Z,24.73
2018-10-07T20:32:45.471Z,28.80
2018-10-07T20:35:13.691Z,24.50
2018-10-07T20:37:42.009Z,22.83
2018-10-07T20:40:10.269Z,25.93
2018-10-07T20:42:38.478Z,25.10
2018-10-07T20:45:08.189Z,28.90
2018-10-07T20:47:36.377Z,25.23
2018-10-07T20:50:05.142Z,24.67
2018-10-07T20:52:33.387Z,25.07
2018-10-07T20:55:02.105Z,21.63
2018-10-07T20:57:30.449Z,22.27
2018-10-07T20:59:58.657Z,21.13
2018-10-07T21:02:26.847Z,22.57
2018-10-07T21:04:55.069Z,22.17
2018-10-07T21:07:23.285Z,22.90
2018-10-07T21:09:51.470Z,20.70
2018-10-07T21:12:19.637Z,31.43
2018-10-07T21:14:47.922Z,21.87
2018-10-07T21:17:16.264Z,21.00
2018-10-07T21:19:44.510Z,20.40
2018-10-07T21:22:12.685Z,20.10
2018-10-07T21:24:40.858Z,23.40
2018-10-07T21:27:09.749Z,21.63
2018-10-07T21:29:39.158Z,18.93
2018-10-07T21:32:07.553Z,19.00
2018-10-07T21:34:35.847Z,17.53
2018-10-07T21:37:04.129Z,18.17
2018-10-07T21:39:32.725Z,19.20
2018-10-07T21:42:01.144Z,19.73
2018-10-07T21:44:29.265Z,21.20
2018-10-07T21:46:57.677Z,20.63
2018-10-07T21:49:26.152Z,20.87
2018-10-07T21:51:54.994Z,20.50
2018-10-07T21:54:23.557Z,21.73
2018-10-07T21:56:51.776Z,20.90
2018-10-07T21:59:19.987Z,22.73
2018-10-07T22:01:48.198Z,18.53
2018-10-07T22:04:16.643Z,19.47
2018-10-07T22:06:44.901Z,21.33
2018-10-07T22:09:13.095Z,19.33
2018-10-07T22:11:41.371Z,21.10
2018-10-07T22:14:10.029Z,23.87
2018-10-07T22:16:39.449Z,19.47
2018-10-07T22:19:08.160Z,19.73
2018-10-07T22:21:36.369Z,21.47
2018-10-07T22:24:04.945Z,21.30
2018-10-07T22:26:33.159Z,17.13
2018-10-07T22:29:01.503Z,24.03
2018-10-07T22:31:29.689Z,20.80
2018-10-07T22:33:57.902Z,19.73
2018-10-07T22:36:26.077Z,17.97
2018-10-07T22:38:54.384Z,16.77
2018-10-07T22:41:22.596Z,18.50
2018-10-07T22:43:50.766Z,19.03
2018-10-07T22:46:19.313Z,20.53
2018-10-07T22:48:47.621Z,17.37
2018-10-07T22:51:15.910Z,19.30
2018-10-07T22:53:44.116Z,17.67
2018-10-07T22:56:12.333Z,17.60
2018-10-07T22:58:40.553Z,18.33
2018-10-07T23:01:09.649Z,17.80
2018-10-07T23:03:38.515Z,18.23
2018-10-07T23:06:06.921Z,17.57
2018-10-07T23:08:35.108Z,16.77
2018-10-07T23:11:03.341Z,18.23
2018-10-07T23:13:31.778Z,21.33
2018-10-07T23:16:00.033Z,21.80
2018-10-07T23:18:28.249Z,15.70
2018-10-07T23:20:56.462Z,16.27
2018-10-07T23:23:24.898Z,16.33
2018-10-07T23:25:53.172Z,18.27
2018-10-07T23:28:21.353Z,19.83
2018-10-07T23:30:49.545Z,17.47
2018-10-07T23:33:17.783Z,19.27
2018-10-07T23:35:46.361Z,16.23
2018-10-07T23:38:14.553Z,21.43
2018-10-07T23:40:43.866Z,17.60
2018-10-07T23:43:12.070Z,19.80
2018-10-07T23:45:41.287Z,15.70
2018-10-07T23:48:09.506Z,21.53
2018-10-07T23:50:37.684Z,20.33
2018-10-07T23:53:05.871Z,19.40
2018-10-07T23:55:34.061Z,18.37
2018-10-07T23:58:02.378Z,17.27
